Time;durP1;ratioP1;P1;durP2;ratioP2;P2;SDS_P1;SDS_P2;PMS_P1;PMS_P2;Temp;Humidity;BMP_temperature;BMP_pressure;BME280_temperature;BME280_humidity;BME280_pressure;Samples;Min_cycle;Max_cycle;Signal;HPM_P1;HPM_P2
2022/12/13 00:01:50;;;;;;;38.97;21.65;;;;;;;-6.49;92.88;101192.31;4957922;28;20077;-73
2022/12/13 00:04:23;;;;;;;44.55;22.98;;;;;;;-6.51;92.59;101188.78;4943541;28;20139;-73
2022/12/13 00:06:52;;;;;;;42.10;21.85;;;;;;;-6.54;92.56;101188.69;4957833;28;20502;-72
2022/12/13 00:09:20;;;;;;;44.05;22.45;;;;;;;-6.56;92.47;101190.28;4955160;28;20047;-73
2022/12/13 00:11:49;;;;;;;41.05;22.23;;;;;;;-6.57;92.55;101191.09;4957606;28;20047;-72
2022/12/13 00:14:21;;;;;;;44.40;21.20;;;;;;;-6.59;92.60;101182.44;4957187;28;20051;-72
2022/12/13 00:16:49;;;;;;;40.50;20.85;;;;;;;-6.63;92.78;101173.75;4955677;28;20521;-72
2022/12/13 00:19:18;;;;;;;38.75;20.80;;;;;;;-6.65;92.83;101179.63;4955049;28;20391;-72
2022/12/13 00:21:46;;;;;;;42.08;20.38;;;;;;;-6.64;92.61;101171.13;4948741;28;20052;-72
2022/12/13 00:24:13;;;;;;;40.65;21.00;;;;;;;-6.64;92.57;101173.69;4955146;28;20147;-73
2022/12/13 00:26:41;;;;;;;40.05;21.48;;;;;;;-6.63;92.70;101183.13;4957469;28;20048;-73
2022/12/13 00:29:10;;;;;;;42.15;21.77;;;;;;;-6.67;92.49;101181.22;4956272;28;20323;-74
2022/12/13 00:31:37;;;;;;;44.35;22.15;;;;;;;-6.71;92.64;101185.34;4956707;28;20083;-76
2022/12/13 00:34:25;;;;;;;40.22;21.70;;;;;;;-6.73;92.59;101180.16;4956732;28;20838;-76
2022/12/13 00:36:59;;;;;;;41.65;20.67;;;;;;;-6.76;92.32;101181.69;4953805;28;20052;-71
2022/12/13 00:39:27;;;;;;;43.90;21.60;;;;;;;-6.78;92.29;101183.31;4953122;28;20047;-72
2022/12/13 00:41:55;;;;;;;45.67;21.52;;;;;;;-6.78;92.58;101178.19;4954373;28;20115;-72
2022/12/13 00:44:22;;;;;;;44.92;21.45;;;;;;;-6.76;92.70;101179.13;4951105;28;20058;-72
2022/12/13 00:46:50;;;;;;;48.40;22.48;;;;;;;-6.74;92.62;101180.97;4953259;28;20048;-72
2022/12/13 00:49:17;;;;;;;42.63;20.88;;;;;;;-6.76;92.57;101174.00;4952773;28;20047;-72
2022/12/13 00:51:48;;;;;;;47.45;22.20;;;;;;;-6.76;92.74;101181.69;4952626;28;20043;-75
2022/12/13 00:54:17;;;;;;;49.08;21.80;;;;;;;-6.80;92.32;101180.66;4951898;28;20059;-72
2022/12/13 00:56:43;;;;;;;49.88;22.70;;;;;;;-6.83;92.50;101177.09;4938420;28;20033;-72
2022/12/13 00:59:14;;;;;;;56.53;23.83;;;;;;;-6.87;92.22;101182.06;4951824;28;20052;-70
2022/12/13 01:01:41;;;;;;;53.20;22.42;;;;;;;-6.88;92.33;101185.47;4953023;28;20040;-69
2022/12/13 01:04:09;;;;;;;52.65;23.65;;;;;;;-6.89;92.51;101176.00;4952919;28;20048;-69
2022/12/13 01:06:48;;;;;;;57.08;22.60;;;;;;;-6.92;92.47;101178.44;4954104;28;20044;-69
2022/12/13 01:09:21;;;;;;;49.25;22.58;;;;;;;-6.92;92.43;101173.31;4952933;28;20135;-69
2022/12/13 01:11:49;;;;;;;53.53;22.77;;;;;;;-6.92;92.37;101178.44;4952975;28;20068;-69
2022/12/13 01:14:17;;;;;;;54.75;24.10;;;;;;;-6.92;92.41;101175.00;4951732;28;20119;-70
2022/12/13 01:16:44;;;;;;;46.70;22.83;;;;;;;-6.93;92.51;101165.56;4953681;28;20040;-70
2022/12/13 01:19:11;;;;;;;51.47;22.65;;;;;;;-6.95;92.61;101170.59;4951016;28;20075;-69
2022/12/13 01:21:38;;;;;;;48.80;22.02;;;;;;;-6.96;92.73;101171.38;4951806;28;20075;-69
2022/12/13 01:24:06;;;;;;;53.80;22.90;;;;;;;-6.96;92.34;101175.66;4950280;28;20163;-69
2022/12/13 01:26:33;;;;;;;47.58;22.25;;;;;;;-6.97;92.59;101174.78;4942823;28;20096;-75
2022/12/13 01:29:04;;;;;;;47.90;21.40;;;;;;;-6.95;92.77;101177.41;4946213;28;20119;-76
2022/12/13 01:31:31;;;;;;;52.97;23.70;;;;;;;-6.94;92.83;101180.03;4952672;28;20096;-75
2022/12/13 01:33:58;;;;;;;47.75;22.35;;;;;;;-6.91;92.52;101184.41;4952026;28;20047;-75
2022/12/13 01:36:25;;;;;;;44.67;21.40;;;;;;;-6.95;92.84;101180.84;4927714;28;20118;-75
2022/12/13 01:38:55;;;;;;;44.60;21.98;;;;;;;-6.93;92.69;101181.78;4951135;28;20052;-74
2022/12/13 01:41:27;;;;;;;46.80;22.10;;;;;;;-6.92;93.01;101187.81;4952255;28;20040;-74
2022/12/13 01:44:02;;;;;;;44.50;20.92;;;;;;;-6.94;92.76;101187.72;4953160;28;20044;-74
2022/12/13 01:46:34;;;;;;;44.92;23.13;;;;;;;-6.94;92.93;101186.88;4952653;28;20059;-73
2022/12/13 01:49:11;;;;;;;44.30;20.83;;;;;;;-6.91;93.17;101189.53;4952080;28;20552;-74
2022/12/13 01:51:54;;;;;;;41.03;20.20;;;;;;;-6.94;92.82;101182.59;4947965;28;20107;-74
2022/12/13 01:54:36;;;;;;;41.13;19.58;;;;;;;-6.95;92.87;101185.97;4950602;28;20407;-75
2022/12/13 01:57:09;;;;;;;43.70;21.27;;;;;;;-7.00;92.82;101179.75;4954072;28;20080;-76
2022/12/13 01:59:43;;;;;;;43.63;20.58;;;;;;;-7.05;92.88;101178.66;4951885;28;20040;-76
2022/12/13 02:02:13;;;;;;;41.97;21.13;;;;;;;-7.11;92.40;101169.00;4952271;28;20054;-75
2022/12/13 02:05:04;;;;;;;40.38;20.58;;;;;;;-7.12;92.42;101181.75;4941514;28;20125;-76
2022/12/13 02:07:35;;;;;;;39.83;20.00;;;;;;;-7.16;92.61;101183.28;4951529;28;20051;-76
2022/12/13 02:10:05;;;;;;;46.05;21.13;;;;;;;-7.20;92.67;101173.69;4950499;28;20039;-75
2022/12/13 02:12:36;;;;;;;41.50;19.23;;;;;;;-7.19;92.55;101178.91;4952049;28;20795;-75
2022/12/13 02:15:10;;;;;;;45.05;20.88;;;;;;;-7.18;92.40;101178.09;4952347;28;20043;-74
2022/12/13 02:18:18;;;;;;;43.53;19.92;;;;;;;-7.20;92.49;101176.25;4935099;28;20047;-73
2022/12/13 02:21:29;;;;;;;39.17;18.77;;;;;;;-7.23;92.61;101169.31;4942925;28;20058;-74
2022/12/13 02:24:53;;;;;;;44.20;19.80;;;;;;;-7.21;92.38;101172.81;4947158;28;20055;-75
2022/12/13 02:28:01;;;;;;;46.45;20.90;;;;;;;-7.20;92.77;101169.47;4949637;28;20059;-75
2022/12/13 02:30:57;;;;;;;40.78;18.25;;;;;;;-7.19;92.79;101175.44;4944138;28;20500;-76
2022/12/13 02:33:56;;;;;;;38.92;18.42;;;;;;;-7.21;92.64;101175.38;4952014;28;20055;-75
2022/12/13 02:37:20;;;;;;;38.60;19.02;;;;;;;-7.22;92.73;101173.63;4950772;28;20449;-75
2022/12/13 02:40:04;;;;;;;41.58;19.42;;;;;;;-7.22;92.68;101172.72;4938340;28;20066;-76
2022/12/13 02:42:43;;;;;;;40.97;18.92;;;;;;;-7.24;92.56;101170.09;4942138;28;20048;-76
2022/12/13 02:45:33;;;;;;;44.05;19.80;;;;;;;-7.27;92.85;101169.94;4951434;28;20047;-76
2022/12/13 02:48:06;;;;;;;40.10;18.92;;;;;;;-7.25;92.61;101170.91;4951525;28;20051;-74
2022/12/13 02:50:34;;;;;;;36.50;18.85;;;;;;;-7.25;92.77;101172.59;4952158;28;20071;-75
2022/12/13 02:53:07;;;;;;;39.00;19.30;;;;;;;-7.25;92.70;101170.03;4951291;28;20044;-74
2022/12/13 02:55:38;;;;;;;40.17;19.35;;;;;;;-7.24;92.67;101162.41;4949222;28;20051;-75
2022/12/13 02:58:06;;;;;;;41.83;20.55;;;;;;;-7.22;92.59;101153.13;4931924;28;20529;-74
2022/12/13 03:01:29;;;;;;;39.00;20.40;;;;;;;-7.19;92.83;101153.28;4951029;28;20495;-74
2022/12/13 03:08:05;;;;;;;41.60;19.42;;;;;;;-7.25;92.45;101152.09;4950408;28;20517;-74
2022/12/13 03:10:51;;;;;;;42.95;19.20;;;;;;;-7.26;92.69;101151.22;4938605;28;20044;-75
2022/12/13 03:13:48;;;;;;;40.85;18.05;;;;;;;-7.30;92.71;101156.13;4950255;28;20119;-74
2022/12/13 03:16:44;;;;;;;38.25;18.02;;;;;;;-7.28;92.46;101150.28;4938824;28;20070;-75
2022/12/13 03:19:12;;;;;;;43.30;19.63;;;;;;;-7.27;92.55;101151.16;4949986;28;20589;-76
2022/12/13 03:21:44;;;;;;;38.03;18.70;;;;;;;-7.27;92.95;101149.44;4940389;28;20039;-76
2022/12/13 03:24:20;;;;;;;47.13;21.17;;;;;;;-7.26;92.72;101150.34;4947942;28;20059;-76
2022/12/13 03:26:50;;;;;;;43.17;19.05;;;;;;;-7.25;92.62;101149.53;4948346;28;20566;-76
2022/12/13 03:29:18;;;;;;;40.65;19.35;;;;;;;-7.21;92.77;101146.31;4950378;28;20107;-76
2022/12/13 03:31:53;;;;;;;42.15;19.55;;;;;;;-7.16;93.05;101149.97;4949537;28;20044;-75
2022/12/13 03:34:20;;;;;;;39.53;19.30;;;;;;;-7.16;92.78;101142.28;4952406;28;20122;-75
2022/12/13 03:36:52;;;;;;;40.33;18.85;;;;;;;-7.11;93.15;101145.06;4950759;28;20044;-75
2022/12/13 03:39:21;;;;;;;43.60;20.08;;;;;;;-7.10;93.05;101140.00;4950968;28;20189;-74
2022/12/13 03:41:49;;;;;;;43.60;21.80;;;;;;;-7.07;93.20;101136.72;4946407;28;20174;-75
2022/12/13 03:44:17;;;;;;;45.75;21.33;;;;;;;-7.03;93.20;101139.50;4951013;28;20241;-77
2022/12/13 03:46:44;;;;;;;47.30;21.65;;;;;;;-6.98;93.30;101138.81;4946613;28;20052;-76
2022/12/13 03:49:11;;;;;;;47.95;21.95;;;;;;;-6.92;93.30;101141.66;4949140;28;20095;-77
2022/12/13 03:51:44;;;;;;;49.80;22.27;;;;;;;-6.89;93.15;101137.56;4948106;28;20064;-76
2022/12/13 03:54:11;;;;;;;49.22;22.20;;;;;;;-6.84;93.44;101135.19;4949110;28;20051;-76
2022/12/13 03:56:38;;;;;;;46.60;21.67;;;;;;;-6.79;93.32;101143.09;4948097;28;20478;-77
2022/12/13 03:59:05;;;;;;;55.90;23.63;;;;;;;-6.72;93.53;101140.00;4950323;28;20043;-75
2022/12/13 04:01:33;;;;;;;51.05;23.52;;;;;;;-6.68;93.59;101139.34;4951120;28;20048;-75
2022/12/13 04:04:00;;;;;;;50.28;23.35;;;;;;;-6.61;93.59;101137.94;4949524;28;20054;-75
2022/12/13 04:06:28;;;;;;;46.58;23.25;;;;;;;-6.59;93.73;101139.75;4951157;28;20855;-75
2022/12/13 04:08:59;;;;;;;54.83;23.70;;;;;;;-6.58;93.80;101141.50;4951007;28;20044;-75
2022/12/13 04:14:12;;;;;;;52.25;23.38;;;;;;;-6.59;93.54;101151.66;4953618;28;20044;-75
2022/12/13 04:16:51;;;;;;;46.08;21.77;;;;;;;-6.59;93.57;101151.66;4954238;28;20119;-75
2022/12/13 04:19:20;;;;;;;49.20;23.58;;;;;;;-6.60;93.64;101148.25;4953384;28;20044;-70
2022/12/13 04:21:53;;;;;;;45.58;22.70;;;;;;;-6.60;93.71;101142.22;4953965;28;20044;-71
2022/12/13 04:24:22;;;;;;;50.60;21.90;;;;;;;-6.62;93.67;101129.34;4952731;28;20485;-71
2022/12/13 04:26:59;;;;;;;46.55;22.30;;;;;;;-6.65;93.63;101144.56;4953559;28;20142;-70
2022/12/13 04:29:28;;;;;;;45.10;21.58;;;;;;;-6.67;93.56;101138.53;4954386;28;20103;-69
2022/12/13 04:32:04;;;;;;;43.30;21.60;;;;;;;-6.69;93.54;101131.56;4952074;28;20099;-69
2022/12/13 04:34:51;;;;;;;49.15;22.05;;;;;;;-6.68;93.68;101121.38;4949690;28;20052;-70
2022/12/13 04:37:26;;;;;;;46.75;21.65;;;;;;;-6.63;93.78;101125.00;4952620;28;20517;-74
2022/12/13 04:39:57;;;;;;;48.30;23.05;;;;;;;-6.56;94.05;101126.16;4954516;28;20059;-74
2022/12/13 04:42:27;;;;;;;53.30;23.83;;;;;;;-6.52;94.45;101119.47;4949993;28;20493;-73
2022/12/13 04:44:54;;;;;;;48.88;22.25;;;;;;;-6.53;94.35;101127.97;4951334;28;20462;-73
2022/12/13 04:47:21;;;;;;;47.30;22.23;;;;;;;-6.55;94.25;101125.34;4953790;28;20043;-75
2022/12/13 04:49:48;;;;;;;44.90;21.67;;;;;;;-6.55;94.30;101122.78;4952905;28;20438;-76
2022/12/13 04:52:15;;;;;;;46.70;22.77;;;;;;;-6.59;94.11;101121.78;4951754;28;21245;-76
2022/12/13 04:54:49;;;;;;;44.28;21.92;;;;;;;-6.62;94.13;101124.22;4953642;28;20098;-73
2022/12/13 04:57:22;;;;;;;42.10;20.63;;;;;;;-6.70;93.93;101120.44;4951820;28;20094;-73
2022/12/13 04:59:49;;;;;;;48.50;21.05;;;;;;;-6.74;94.04;101128.78;4952444;28;20073;-73
2022/12/13 05:02:16;;;;;;;48.35;20.90;;;;;;;-6.80;94.15;101129.38;4954029;28;20048;-73
2022/12/13 05:04:51;;;;;;;40.08;19.45;;;;;;;-6.88;93.65;101134.19;4953376;28;20044;-73
2022/12/13 05:07:21;;;;;;;43.97;20.00;;;;;;;-6.96;93.43;101129.50;4942001;28;20047;-73
2022/12/13 05:09:48;;;;;;;41.88;20.63;;;;;;;-7.03;93.56;101129.25;4953038;28;20514;-73
2022/12/13 05:12:15;;;;;;;38.13;19.83;;;;;;;-7.09;93.33;101128.94;4952390;28;20054;-74
2022/12/13 05:14:52;;;;;;;45.88;20.63;;;;;;;-7.13;93.36;101136.41;4933696;28;20120;-72
2022/12/13 05:17:20;;;;;;;42.47;19.95;;;;;;;-7.18;93.24;101126.84;4952646;28;20095;-72
2022/12/13 05:19:48;;;;;;;42.05;19.23;;;;;;;-7.19;93.51;101135.34;4952064;28;20043;-73
2022/12/13 05:22:16;;;;;;;40.67;20.35;;;;;;;-7.23;93.56;101117.19;4947766;28;20131;-72
2022/12/13 05:24:46;;;;;;;42.15;20.90;;;;;;;-7.24;93.08;101123.97;4952092;28;20056;-72
2022/12/13 05:27:14;;;;;;;42.67;21.15;;;;;;;-7.22;93.49;101124.03;4951453;28;20046;-71
2022/12/13 05:29:56;;;;;;;44.25;20.45;;;;;;;-7.22;93.16;101119.81;4947738;28;20043;-71
2022/12/13 05:32:38;;;;;;;47.67;20.50;;;;;;;-7.21;93.48;101124.13;4952501;28;20114;-76
2022/12/13 05:35:16;;;;;;;43.33;20.95;;;;;;;-7.22;93.19;101114.69;4950369;28;20051;-77
2022/12/13 05:37:53;;;;;;;45.33;21.10;;;;;;;-7.24;93.20;101113.72;4955406;28;20051;-77
2022/12/13 05:40:27;;;;;;;42.55;18.75;;;;;;;-7.27;93.35;101103.31;4955000;28;20107;-72
2022/12/13 05:42:55;;;;;;;45.25;20.13;;;;;;;-7.30;93.22;101110.91;4953641;28;20043;-74
2022/12/13 05:45:30;;;;;;;40.00;19.40;;;;;;;-7.32;93.59;101099.69;4949708;28;20768;-75
2022/12/13 05:47:58;;;;;;;41.72;20.58;;;;;;;-7.15;93.88;101095.34;4952455;28;20070;-75
2022/12/13 05:50:25;;;;;;;43.20;20.00;;;;;;;-7.06;93.86;101103.47;4952020;28;20052;-74
2022/12/13 05:52:53;;;;;;;44.35;20.80;;;;;;;-7.08;93.76;101093.94;4947961;28;20055;-74
2022/12/13 05:55:20;;;;;;;41.80;20.17;;;;;;;-7.11;93.53;101098.94;4950113;28;20126;-75
2022/12/13 05:57:47;;;;;;;45.90;21.42;;;;;;;-7.13;93.33;101092.84;4946939;28;20045;-74
2022/12/13 06:00:18;;;;;;;41.15;20.08;;;;;;;-7.10;93.50;101090.44;4953447;28;20561;-73
2022/12/13 06:02:58;;;;;;;43.95;20.80;;;;;;;-7.03;93.31;101089.91;4949268;28;20043;-73
2022/12/13 06:05:29;;;;;;;48.15;20.90;;;;;;;-7.02;93.48;101089.94;4952892;28;20048;-73
2022/12/13 06:07:56;;;;;;;42.72;20.48;;;;;;;-6.98;93.28;101092.66;4953089;28;20055;-73
2022/12/13 06:10:26;;;;;;;52.47;23.60;;;;;;;-6.83;93.66;101087.34;4953550;28;20640;-73
2022/12/13 06:13:05;;;;;;;45.40;22.50;;;;;;;-6.48;94.22;101088.88;4938459;28;20153;-73
2022/12/13 06:15:53;;;;;;;46.03;23.63;;;;;;;-6.30;93.83;101087.91;4945872;28;20103;-74
2022/12/13 06:18:34;;;;;;;47.55;22.30;;;;;;;-6.03;94.35;101079.63;4954320;28;20036;-74
2022/12/13 06:21:05;;;;;;;49.30;24.40;;;;;;;-5.88;94.42;101082.78;4943538;28;20055;-75
2022/12/13 06:23:35;;;;;;;45.67;22.98;;;;;;;-5.93;93.63;101080.03;4966720;28;20258;-74
2022/12/13 06:26:05;;;;;;;51.85;25.35;;;;;;;-6.01;93.29;101081.44;4951339;28;20047;-74
2022/12/13 06:28:33;;;;;;;51.17;25.52;;;;;;;-6.13;93.11;101083.50;4943051;28;20055;-74
2022/12/13 06:31:03;;;;;;;49.03;23.67;;;;;;;-6.18;92.96;101085.00;4947934;28;20127;-74
2022/12/13 06:33:35;;;;;;;52.25;24.42;;;;;;;-6.22;93.37;101080.53;4946496;28;20132;-74
2022/12/13 06:36:04;;;;;;;50.33;25.60;;;;;;;-6.24;93.29;101083.91;4944844;28;20476;-73
2022/12/13 06:38:32;;;;;;;55.53;25.42;;;;;;;-6.22;94.02;101076.31;4946711;28;20094;-74
2022/12/13 06:41:12;;;;;;;56.08;26.13;;;;;;;-6.24;94.02;101078.78;4967769;28;20441;-74
2022/12/13 06:43:45;;;;;;;50.35;24.88;;;;;;;-6.23;94.14;101079.69;4941283;28;20045;-74
2022/12/13 06:46:14;;;;;;;58.97;26.25;;;;;;;-6.25;94.16;101071.91;4942861;28;20051;-74
2022/12/13 06:48:41;;;;;;;54.15;25.33;;;;;;;-6.27;94.24;101088.94;4938602;28;20055;-74
2022/12/13 06:51:09;;;;;;;50.47;25.42;;;;;;;-6.31;94.42;101084.47;4940447;28;20131;-75
2022/12/13 06:53:40;;;;;;;53.72;25.83;;;;;;;-6.34;94.31;101089.47;4936525;28;20055;-74
2022/12/13 06:56:10;;;;;;;56.22;27.92;;;;;;;-6.38;94.38;101082.47;4947256;28;20040;-74
2022/12/13 06:58:40;;;;;;;56.90;26.35;;;;;;;-6.41;94.20;101090.03;4950937;28;20066;-74
2022/12/13 07:01:14;;;;;;;58.30;26.20;;;;;;;-6.46;94.16;101094.97;4950911;28;20044;-74
2022/12/13 07:03:54;;;;;;;54.25;26.45;;;;;;;-6.50;94.10;101085.38;4937495;28;20042;-74
2022/12/13 07:06:24;;;;;;;55.10;26.23;;;;;;;-6.50;94.46;101087.94;4951824;28;20044;-74
2022/12/13 07:08:56;;;;;;;59.63;27.45;;;;;;;-6.50;94.67;101087.94;4951992;28;20048;-75
2022/12/13 07:11:28;;;;;;;57.72;25.92;;;;;;;-6.47;94.53;101097.47;4953322;28;20048;-74
2022/12/13 07:13:55;;;;;;;61.55;27.35;;;;;;;-6.49;94.67;101089.69;4952749;28;20051;-74
2022/12/13 07:16:23;;;;;;;56.45;26.58;;;;;;;-6.51;94.45;101093.00;4952922;28;20043;-75
2022/12/13 07:18:57;;;;;;;57.65;27.45;;;;;;;-6.53;94.48;101100.66;4952154;28;20054;-74
2022/12/13 07:21:29;;;;;;;57.33;26.50;;;;;;;-6.55;94.60;101095.44;4952358;28;20513;-74
2022/12/13 07:23:56;;;;;;;56.17;25.95;;;;;;;-6.56;94.37;101098.81;4950591;28;20506;-74
2022/12/13 07:26:24;;;;;;;54.60;26.92;;;;;;;-6.53;94.46;101104.88;4933503;28;20044;-74
2022/12/13 07:28:53;;;;;;;56.25;25.98;;;;;;;-6.56;94.51;101096.25;4944476;28;20047;-74
2022/12/13 07:31:23;;;;;;;58.15;25.77;;;;;;;-6.57;94.53;101102.22;4952393;28;20481;-74
2022/12/13 07:33:51;;;;;;;52.03;26.40;;;;;;;-6.58;94.37;101110.72;4933513;29;20045;-74
2022/12/13 07:36:22;;;;;;;58.30;27.48;;;;;;;-6.59;94.34;101108.97;4941037;28;20127;-74
2022/12/13 07:38:54;;;;;;;57.85;26.17;;;;;;;-6.60;94.51;101111.44;4952368;28;20510;-74
2022/12/13 07:41:25;;;;;;;60.58;25.67;;;;;;;-6.60;94.62;101114.00;4952517;28;20063;-74
2022/12/13 07:43:54;;;;;;;55.95;24.77;;;;;;;-6.58;94.72;101115.84;4951630;28;20048;-74
2022/12/13 07:46:23;;;;;;;52.47;25.13;;;;;;;-6.58;94.60;101112.38;4953864;28;20036;-74
2022/12/13 07:49:04;;;;;;;57.97;26.58;;;;;;;-6.63;94.43;101112.19;4954533;28;20119;-73
2022/12/13 07:51:37;;;;;;;52.88;24.52;;;;;;;-6.62;94.32;101107.94;4955999;28;20095;-73
2022/12/13 07:54:07;;;;;;;58.40;24.92;;;;;;;-6.64;94.53;101114.69;4955897;28;20565;-72
2022/12/13 07:56:34;;;;;;;51.28;25.02;;;;;;;-6.65;94.48;101112.94;4955977;28;20588;-72
2022/12/13 07:59:02;;;;;;;53.33;25.33;;;;;;;-6.65;94.29;101110.38;4955483;28;20056;-73
2022/12/13 08:01:33;;;;;;;52.05;24.58;;;;;;;-6.65;94.27;101118.06;4955916;28;20115;-73
2022/12/13 08:04:04;;;;;;;53.35;24.70;;;;;;;-6.64;94.25;101124.94;4955274;28;20036;-73
2022/12/13 08:06:37;;;;;;;53.75;25.13;;;;;;;-6.63;94.04;101122.44;4938745;28;20065;-72
2022/12/13 08:09:05;;;;;;;48.85;25.02;;;;;;;-6.60;94.30;101132.84;4955529;28;20036;-72
2022/12/13 08:11:32;;;;;;;51.78;24.00;;;;;;;-6.57;94.28;101135.56;4955415;28;20043;-73
2022/12/13 08:13:59;;;;;;;50.40;24.42;;;;;;;-6.55;94.18;101130.50;4955262;28;20478;-72
2022/12/13 08:16:28;;;;;;;47.10;24.20;;;;;;;-6.52;93.87;101129.75;4955282;28;20044;-73
2022/12/13 08:18:58;;;;;;;57.70;24.13;;;;;;;-6.48;93.86;101131.63;4955565;28;20050;-73
2022/12/13 08:21:39;;;;;;;55.13;25.25;;;;;;;-6.42;94.04;101132.78;4955587;28;20048;-73
2022/12/13 08:24:29;;;;;;;54.83;25.70;;;;;;;-6.36;94.00;101128.72;4955100;28;20066;-73
2022/12/13 08:27:01;;;;;;;51.92;25.25;;;;;;;-6.31;94.21;101129.81;4954751;28;20043;-72
2022/12/13 08:29:33;;;;;;;56.03;26.52;;;;;;;-6.25;94.12;101119.78;4955084;28;20047;-72
2022/12/13 08:32:10;;;;;;;54.38;27.40;;;;;;;-6.19;93.88;101114.91;4955411;28;20399;-73
2022/12/13 08:34:38;;;;;;;59.33;27.02;;;;;;;-6.12;93.97;101116.06;4955302;28;20043;-74
2022/12/13 08:37:05;;;;;;;62.22;28.05;;;;;;;-6.04;94.10;101112.09;4954917;28;20047;-74
2022/12/13 08:39:35;;;;;;;58.72;28.98;;;;;;;-5.96;94.03;101110.72;4955302;28;20744;-72
2022/12/13 08:42:07;;;;;;;61.53;28.30;;;;;;;-5.89;94.09;101110.97;4958076;28;20500;-72
2022/12/13 08:44:49;;;;;;;57.95;28.10;;;;;;;-5.81;94.19;101113.06;4955018;28;20090;-74
2022/12/13 08:47:21;;;;;;;62.42;28.63;;;;;;;-5.75;94.04;101120.13;4954603;28;20427;-73
2022/12/13 08:49:58;;;;;;;58.15;28.35;;;;;;;-5.67;93.97;101126.44;4954609;28;20040;-73
2022/12/13 08:52:34;;;;;;;56.78;28.73;;;;;;;-5.62;94.09;101124.06;4954632;28;20054;-73
2022/12/13 08:55:09;;;;;;;57.55;27.73;;;;;;;-5.55;94.01;101120.91;4954778;28;20102;-73
2022/12/13 08:57:38;;;;;;;52.33;27.05;;;;;;;-5.49;94.09;101123.72;4953951;28;20052;-73
2022/12/13 09:00:10;;;;;;;59.50;27.60;;;;;;;-5.43;93.98;101129.94;4953845;28;20052;-74
2022/12/13 09:02:37;;;;;;;61.47;29.08;;;;;;;-5.37;94.14;101133.63;4953986;28;20048;-74
2022/12/13 09:05:07;;;;;;;58.20;28.75;;;;;;;-5.28;94.08;101143.38;4953897;28;20087;-74
2022/12/13 09:07:35;;;;;;;52.05;26.80;;;;;;;-5.20;94.01;101136.88;4954698;28;20048;-74
2022/12/13 09:10:04;;;;;;;56.00;28.65;;;;;;;-5.17;94.03;101134.38;4954741;28;20628;-74
2022/12/13 09:12:54;;;;;;;50.65;26.88;;;;;;;-5.11;94.00;101133.75;4953851;28;20175;-74
2022/12/13 09:15:31;;;;;;;56.28;28.20;;;;;;;-5.08;93.94;101132.97;4954800;28;20043;-74
2022/12/13 09:18:02;;;;;;;55.63;27.85;;;;;;;-5.02;93.69;101135.81;4954491;28;20035;-74
2022/12/13 09:20:34;;;;;;;54.97;26.95;;;;;;;-4.97;93.95;101141.13;4954524;28;20039;-74
2022/12/13 09:23:09;;;;;;;55.70;27.67;;;;;;;-4.93;93.89;101140.41;4952706;28;20064;-74
2022/12/13 09:25:59;;;;;;;50.90;25.17;;;;;;;-4.94;93.61;101142.13;4954358;28;20046;-74
2022/12/13 09:28:35;;;;;;;54.55;28.52;;;;;;;-4.92;93.87;101137.91;4953598;28;20051;-74
2022/12/13 09:31:08;;;;;;;52.15;26.70;;;;;;;-4.89;93.70;101132.00;4953508;28;20118;-74
2022/12/13 09:33:36;;;;;;;54.35;27.00;;;;;;;-4.88;93.73;101136.31;4954357;28;20043;-74
2022/12/13 09:36:12;;;;;;;56.67;28.05;;;;;;;-4.85;93.58;101145.03;4953956;28;20040;-74
2022/12/13 09:38:39;;;;;;;49.85;26.30;;;;;;;-4.83;93.58;101132.22;4946153;28;20039;-74
2022/12/13 09:41:31;;;;;;;52.00;26.92;;;;;;;-4.77;93.41;101141.84;4973313;28;20419;-74
2022/12/13 09:44:27;;;;;;;53.33;26.65;;;;;;;-4.72;93.47;101141.22;4959899;28;20040;-74
2022/12/13 09:47:06;;;;;;;51.35;26.80;;;;;;;-4.64;93.62;101143.22;4947851;28;20111;-74
2022/12/13 09:49:44;;;;;;;53.60;28.05;;;;;;;-4.60;93.52;101142.47;4937851;28;20048;-74
2022/12/13 09:52:23;;;;;;;51.25;27.52;;;;;;;-4.57;93.61;101143.47;4954218;28;20122;-74
2022/12/13 09:54:55;;;;;;;50.13;26.83;;;;;;;-4.55;93.51;101131.53;4953567;28;20143;-74
2022/12/13 09:57:29;;;;;;;54.67;28.15;;;;;;;-4.52;93.35;101123.03;4954172;28;20048;-73
2022/12/13 10:00:10;;;;;;;48.45;27.15;;;;;;;-4.49;93.39;101127.44;4954063;28;20036;-73
2022/12/13 10:02:55;;;;;;;53.58;28.38;;;;;;;-4.48;93.50;101116.34;4953890;28;20079;-73
2022/12/13 10:05:36;;;;;;;51.63;27.00;;;;;;;-4.46;93.70;101110.41;4953914;28;20505;-74
2022/12/13 10:08:13;;;;;;;51.03;26.40;;;;;;;-4.42;93.48;101114.81;4953819;28;20055;-74
2022/12/13 10:10:42;;;;;;;51.53;26.38;;;;;;;-4.33;93.60;101109.13;4953512;28;20052;-74
2022/12/13 10:13:41;;;;;;;54.85;27.98;;;;;;;-4.26;93.56;101100.78;4954053;28;20071;-74
2022/12/13 10:16:23;;;;;;;64.45;28.73;;;;;;;-4.20;93.70;101097.56;4953831;28;20513;-74
2022/12/13 10:18:51;;;;;;;51.92;28.08;;;;;;;-4.13;93.64;101096.97;4954004;28;20046;-75
2022/12/13 10:21:30;;;;;;;53.67;26.85;;;;;;;-4.05;93.61;101097.19;4953522;28;20051;-75
2022/12/13 10:24:29;;;;;;;52.55;27.05;;;;;;;-4.01;93.58;101106.78;4952847;28;20043;-74
2022/12/13 10:27:13;;;;;;;51.33;27.10;;;;;;;-3.95;93.48;101095.81;4953521;28;20549;-74
2022/12/13 10:30:07;;;;;;;53.90;28.55;;;;;;;-3.86;93.35;101092.66;4953569;28;20566;-74
2022/12/13 10:32:59;;;;;;;48.90;26.75;;;;;;;-3.75;93.37;101087.03;4952992;28;20048;-74
2022/12/13 10:35:37;;;;;;;51.00;26.65;;;;;;;-3.62;93.56;101078.00;4953241;28;20044;-74
2022/12/13 10:38:07;;;;;;;49.92;28.02;;;;;;;-3.48;93.37;101080.13;4953247;28;20111;-74
2022/12/13 10:40:39;;;;;;;49.60;27.45;;;;;;;-3.40;93.36;101080.34;4952881;28;20040;-74
2022/12/13 10:43:19;;;;;;;49.35;26.70;;;;;;;-3.29;93.06;101073.81;4953703;28;20087;-74
2022/12/13 10:45:56;;;;;;;46.30;25.58;;;;;;;-3.19;92.55;101060.38;4953292;28;20055;-75
2022/12/13 10:48:49;;;;;;;49.28;27.02;;;;;;;-3.09;92.66;101051.22;4952703;28;20052;-74
2022/12/13 10:51:21;;;;;;;47.47;25.30;;;;;;;-2.92;92.66;101056.88;4944899;28;20537;-75
2022/12/13 10:53:56;;;;;;;49.00;25.83;;;;;;;-2.81;92.44;101057.16;4953559;28;20107;-74
2022/12/13 10:56:37;;;;;;;50.25;27.35;;;;;;;-2.64;92.58;101055.03;4953233;28;20047;-74
2022/12/13 10:59:22;;;;;;;44.10;24.17;;;;;;;-2.58;92.12;101052.63;4952959;28;20052;-74
2022/12/13 11:01:50;;;;;;;45.25;24.70;;;;;;;-2.52;92.07;101044.16;4953557;28;20039;-74
2022/12/13 11:04:28;;;;;;;43.53;24.35;;;;;;;-2.44;91.24;101040.06;4952426;28;20074;-75
2022/12/13 11:06:59;;;;;;;44.35;25.08;;;;;;;-2.40;91.14;101035.88;4942165;28;20054;-72
2022/12/13 11:09:34;;;;;;;43.35;24.70;;;;;;;-2.30;90.47;101043.03;4950952;28;20154;-72
2022/12/13 11:12:22;;;;;;;42.63;24.98;;;;;;;-2.30;90.34;101032.69;4952028;28;20046;-75
2022/12/13 11:15:00;;;;;;;42.80;23.83;;;;;;;-2.29;90.32;101036.16;4953074;28;20040;-73
2022/12/13 11:17:35;;;;;;;42.78;23.75;;;;;;;-2.26;90.10;101038.81;4953003;28;20042;-73
2022/12/13 11:20:19;;;;;;;44.85;24.42;;;;;;;-2.28;89.87;101028.44;4952114;28;20048;-73
2022/12/13 11:22:57;;;;;;;43.88;24.73;;;;;;;-2.27;89.75;101022.44;4949751;28;20180;-75
2022/12/13 11:25:39;;;;;;;42.58;24.45;;;;;;;-2.19;89.79;101023.47;4949294;28;20036;-72
2022/12/13 11:28:55;;;;;;;46.63;25.88;;;;;;;-2.02;89.96;101025.63;4950767;28;20057;-75
2022/12/13 11:31:47;;;;;;;;;;;;;;;-1.85;90.37;101023.44;4951575;28;20048;-74
2022/12/13 11:34:38;;;;;;;43.97;23.98;;;;;;;-1.65;90.31;101018.72;4934429;28;19938;-74
2022/12/13 11:37:29;;;;;;;43.58;24.48;;;;;;;-1.48;89.93;101008.75;4952355;28;20118;-74
2022/12/13 11:40:19;;;;;;;55.75;33.33;;;;;;;-1.38;90.20;101008.97;4951323;28;20052;-73
2022/12/13 11:43:04;;;;;;;42.65;24.02;;;;;;;-1.28;89.81;101006.63;4952682;28;20557;-74
2022/12/13 11:45:57;;;;;;;39.67;22.83;;;;;;;-1.21;89.57;101015.34;4951699;28;20664;-74
2022/12/13 11:48:55;;;;;;;37.30;21.25;;;;;;;-1.16;88.87;101015.44;4952171;28;20767;-73
2022/12/13 11:51:42;;;;;;;40.03;23.30;;;;;;;-1.11;89.03;101004.34;4950797;28;20047;-73